Oney Z — J8B4719 — position and weather

sailwx.info

Track history (hours):
 
Tides and Currents Weather Stations Pressure Air Temp Water Temp Dewpoint Dewpoint Depression Visibility Wind Speed Wind Dir Waves Ship Positions

Oney Z

Last reported at 2016-Jun-27 21:33 UTC. Time now 2016-Jul-01 01:00 UTC.
Position N 37°55' E 023°01'.

Length 79 m; draft 3.3 m.

Type: Cargo ship. MMSI: 376099000.

Date/timePositionNaut miles runAvg speedWind from/ knotsBaromVisibWave heightAir tempDewpointWater temp
2016-Jun-27 21:33N 37°55' E 023°01'3 3.0
2016-Jun-27 20:33N 37°53' E 023°05'8 7.8
2016-Jun-27 19:33N 37°53' E 023°14'8 8.3
2016-Jun-27 18:33N 37°50' E 023°24'8 7.5
2016-Jun-27 17:33N 37°51' E 023°34'6 5.8
2016-Jun-27 16:33N 37°57' E 023°34'5 4.8
2016-Jun-27 15:33N 38°02' E 023°32'0 0.0
2016-Jun-27 14:30N 38°02' E 023°32'0 0.0
2016-Jun-27 13:30N 38°02' E 023°32'0 0.0
2016-Jun-27 12:33N 38°02' E 023°32'0 0.0
2016-Jun-27 11:33N 38°02' E 023°32'0 0.0
2016-Jun-27 10:33N 38°02' E 023°32'0 0.0
2016-Jun-27 09:33N 38°02' E 023°32'0 0.0
2016-Jun-27 08:33N 38°02' E 023°32'0 0.0
2016-Jun-27 07:33N 38°02' E 023°32'2 1.7
2016-Jun-27 06:33N 38°00' E 023°33'6 5.7
2016-Jun-27 05:33N 37°55' E 023°36'2 2.1
2016-Jun-27 04:33N 37°55' E 023°33'0 0.1
2016-Jun-27 03:33N 37°55' E 023°33'0 0.0
2016-Jun-27 02:33N 37°55' E 023°33'0 0.0
2016-Jun-27 01:33N 37°55' E 023°33'0 0.0
2016-Jun-27 00:33N 37°55' E 023°33'0 0.0
2016-Jun-26 23:33N 37°55' E 023°33'0 0.1
2016-Jun-26 22:33N 37°55' E 023°33'0 0.0
2016-Jun-26 21:33N 37°55' E 023°33'0 0.0
2016-Jun-26 20:33N 37°55' E 023°33'0 0.0
2016-Jun-26 19:33N 37°55' E 023°33'0 0.0
2016-Jun-26 18:33N 37°55' E 023°33'0 0.0
2016-Jun-26 17:33N 37°55' E 023°33'0 0.0
2016-Jun-26 16:33N 37°55' E 023°33'0 0.0
2016-Jun-26 15:33N 37°55' E 023°33'0 0.0
2016-Jun-26 14:33N 37°55' E 023°33'0 0.0
2016-Jun-26 13:33N 37°55' E 023°33'0 0.0
2016-Jun-26 12:33N 37°55' E 023°33'0 0.1
2016-Jun-26 11:33N 37°55' E 023°33'0 0.0
2016-Jun-26 10:33N 37°55' E 023°33'1 1.4
2016-Jun-26 09:33N 37°54' E 023°34'6 6.0
2016-Jun-26 08:33N 37°50' E 023°30'23 7.5
2016-Jun-26 05:31N 37°55' E 023°02'0 0.0
2016-Jun-26 04:28N 37°55' E 023°02'0 0.0
2016-Jun-26 02:03N 37°55' E 023°02'0 0.0
2016-Jun-26 00:29N 37°55' E 023°02'0 0.0
2016-Jun-25 22:30N 37°55' E 023°02'0 0.0
2016-Jun-25 21:27N 37°55' E 023°02'0 0.0
2016-Jun-25 20:31N 37°55' E 023°02'1 0.5
2016-Jun-25 19:19N 37°55' E 023°01'80 4.0
2016-Jun-24 23:28N 38°15' E 021°23'5 5.3
2016-Jun-24 22:33N 38°13' E 021°17'6 5.7
2016-Jun-24 21:33N 38°11' E 021°10'7 5.7
2016-Jun-24 20:16N 38°07' E 021°03'341 7.4
2016-Jun-22 22:21N 35°53' E 014°30'  
2016-Jun-19 14:33N 35°51' E 014°39'0 0.0
2016-Jun-19 11:24N 35°51' E 014°39'0 0.0
2016-Jun-19 10:33N 35°51' E 014°39'1 0.3
2016-Jun-19 05:33N 35°52' E 014°38'9 8.9
2016-Jun-19 04:33N 35°60' E 014°32'9 8.8
2016-Jun-19 03:33N 36°07' E 014°25'8 8.2
2016-Jun-19 02:33N 36°12' E 014°17'8 8.0
2016-Jun-19 01:33N 36°15' E 014°08'8 8.2
2016-Jun-19 00:32N 36°19' E 013°59'8 8.2
2016-Jun-18 23:33N 36°22' E 013°50'8 8.3
2016-Jun-18 22:33N 36°26' E 013°41'9 8.7
2016-Jun-18 21:30N 36°31' E 013°31'12 8.6
2016-Jun-18 20:08N 36°36' E 013°18'5 8.4
2016-Jun-18 19:33N 36°38' E 013°12'  
Track history (hours):
 
Tides and Currents Weather Stations Pressure Air Temp Water Temp Dewpoint Dewpoint Depression Visibility Wind Speed Wind Dir Waves Ship Positions

Oney Z

Last reported at 2016-Jun-27 21:33 UTC. Time now 2016-Jul-01 01:00 UTC.
Position N 37°55' E 023°01'.

Length 79 m; draft 3.3 m.

Type: Cargo ship. MMSI: 376099000.

Date/timePositionNaut miles runAvg speedWind from/ knotsBaromVisibWave heightAir tempDewpointWater temp
2016-Jun-27 21:33N 37°55' E 023°01'3 3.0
2016-Jun-27 20:33N 37°53' E 023°05'8 7.8
2016-Jun-27 19:33N 37°53' E 023°14'8 8.3
2016-Jun-27 18:33N 37°50' E 023°24'8 7.5
2016-Jun-27 17:33N 37°51' E 023°34'6 5.8
2016-Jun-27 16:33N 37°57' E 023°34'5 4.8
2016-Jun-27 15:33N 38°02' E 023°32'0 0.0
2016-Jun-27 14:30N 38°02' E 023°32'0 0.0
2016-Jun-27 13:30N 38°02' E 023°32'0 0.0
2016-Jun-27 12:33N 38°02' E 023°32'0 0.0
2016-Jun-27 11:33N 38°02' E 023°32'0 0.0
2016-Jun-27 10:33N 38°02' E 023°32'0 0.0
2016-Jun-27 09:33N 38°02' E 023°32'0 0.0
2016-Jun-27 08:33N 38°02' E 023°32'0 0.0
2016-Jun-27 07:33N 38°02' E 023°32'2 1.7
2016-Jun-27 06:33N 38°00' E 023°33'6 5.7
2016-Jun-27 05:33N 37°55' E 023°36'2 2.1
2016-Jun-27 04:33N 37°55' E 023°33'0 0.1
2016-Jun-27 03:33N 37°55' E 023°33'0 0.0
2016-Jun-27 02:33N 37°55' E 023°33'0 0.0
2016-Jun-27 01:33N 37°55' E 023°33'0 0.0
2016-Jun-27 00:33N 37°55' E 023°33'0 0.0
2016-Jun-26 23:33N 37°55' E 023°33'0 0.1
2016-Jun-26 22:33N 37°55' E 023°33'0 0.0
2016-Jun-26 21:33N 37°55' E 023°33'0 0.0
2016-Jun-26 20:33N 37°55' E 023°33'0 0.0
2016-Jun-26 19:33N 37°55' E 023°33'0 0.0
2016-Jun-26 18:33N 37°55' E 023°33'0 0.0
2016-Jun-26 17:33N 37°55' E 023°33'0 0.0
2016-Jun-26 16:33N 37°55' E 023°33'0 0.0
2016-Jun-26 15:33N 37°55' E 023°33'0 0.0
2016-Jun-26 14:33N 37°55' E 023°33'0 0.0
2016-Jun-26 13:33N 37°55' E 023°33'0 0.0
2016-Jun-26 12:33N 37°55' E 023°33'0 0.1
2016-Jun-26 11:33N 37°55' E 023°33'0 0.0
2016-Jun-26 10:33N 37°55' E 023°33'1 1.4
2016-Jun-26 09:33N 37°54' E 023°34'6 6.0
2016-Jun-26 08:33N 37°50' E 023°30'23 7.5
2016-Jun-26 05:31N 37°55' E 023°02'0 0.0
2016-Jun-26 04:28N 37°55' E 023°02'0 0.0
2016-Jun-26 02:03N 37°55' E 023°02'0 0.0
2016-Jun-26 00:29N 37°55' E 023°02'0 0.0
2016-Jun-25 22:30N 37°55' E 023°02'0 0.0
2016-Jun-25 21:27N 37°55' E 023°02'0 0.0
2016-Jun-25 20:31N 37°55' E 023°02'1 0.5
2016-Jun-25 19:19N 37°55' E 023°01'80 4.0
2016-Jun-24 23:28N 38°15' E 021°23'5 5.3
2016-Jun-24 22:33N 38°13' E 021°17'6 5.7
2016-Jun-24 21:33N 38°11' E 021°10'7 5.7
2016-Jun-24 20:16N 38°07' E 021°03'341 7.4
2016-Jun-22 22:21N 35°53' E 014°30'  
2016-Jun-19 14:33N 35°51' E 014°39'0 0.0
2016-Jun-19 11:24N 35°51' E 014°39'0 0.0
2016-Jun-19 10:33N 35°51' E 014°39'1 0.3
2016-Jun-19 05:33N 35°52' E 014°38'9 8.9
2016-Jun-19 04:33N 35°60' E 014°32'9 8.8
2016-Jun-19 03:33N 36°07' E 014°25'8 8.2
2016-Jun-19 02:33N 36°12' E 014°17'8 8.0
2016-Jun-19 01:33N 36°15' E 014°08'8 8.2
2016-Jun-19 00:32N 36°19' E 013°59'8 8.2
2016-Jun-18 23:33N 36°22' E 013°50'8 8.3
2016-Jun-18 22:33N 36°26' E 013°41'9 8.7
2016-Jun-18 21:30N 36°31' E 013°31'12 8.6
2016-Jun-18 20:08N 36°36' E 013°18'5 8.4
2016-Jun-18 19:33N 36°38' E 013°12'  

Dump ship's entire track history